Time;durP1;ratioP1;P1;durP2;ratioP2;P2;SDS_P1;SDS_P2;PMS_P1;PMS_P2;Temp;Humidity;BMP_temperature;BMP_pressure;BME280_temperature;BME280_humidity;BME280_pressure;Samples;Min_cycle;Max_cycle;Signal;HPM_P1;HPM_P2
2021/10/01 00:01:07;;;;;;;;;;;;;;;;;;5060920;28;19937;-68
2021/10/01 00:03:42;;;;;;;;;;;;;;;;;;5063172;28;19953;-68
2021/10/01 00:06:24;;;;;;;;;;;;;;;;;;5061397;28;19955;-68
2021/10/01 00:08:56;;;;;;;;;;;;;;;;;;5076616;28;20350;-67
2021/10/01 00:11:25;;;;;;;;;;;;;;;;;;5046183;28;20391;-68
2021/10/01 00:13:55;;;;;;;;;;;;;;;;;;5051295;28;20306;-68
2021/10/01 00:16:26;;;;;;;;;;;;;;;;;;5068218;28;19920;-68
2021/10/01 00:18:54;;;;;;;;;;;;;;;;;;5066271;28;19921;-68
2021/10/01 00:21:25;;;;;;;;;;;;;;;;;;5064476;28;19996;-68
2021/10/01 00:23:54;;;;;;;;;;;;;;;;;;5058313;28;19962;-67
2021/10/01 00:26:25;;;;;;;;;;;;;;;;;;5065178;28;19959;-67
2021/10/01 00:28:55;;;;;;;;;;;;;;;;;;5067502;28;19944;-67
2021/10/01 00:31:27;;;;;;;;;;;;;;;;;;5062872;28;20368;-67
2021/10/01 00:33:56;;;;;;;;;;;;;;;;;;5070007;28;19960;-68
2021/10/01 00:36:28;;;;;;;;;;;;;;;;;;5062197;28;19938;-68
2021/10/01 00:39:00;;;;;;;;;;;;;;;;;;5070027;28;20353;-68
2021/10/01 00:41:30;;;;;;;;;;;;;;;;;;5064059;28;19942;-68
2021/10/01 00:44:01;;;;;;;;;;;;;;;;;;5068655;28;19920;-68
2021/10/01 00:46:29;;;;;;;;;;;;;;;;;;5068693;28;19935;-68
2021/10/01 00:49:00;;;;;;;;;;;;;;;;;;5064366;28;19944;-68
2021/10/01 00:51:31;;;;;;;;;;;;;;;;;;5063654;28;19966;-68
2021/10/01 00:54:02;;;;;;;;;;;;;;;;;;5066341;28;20449;-68
2021/10/01 00:56:33;;;;;;;;;;;;;;;;;;5068459;28;20337;-68
2021/10/01 00:59:04;;;;;;;;;;;;;;;;;;5051163;28;19946;-68
2021/10/01 01:01:33;;;;;;;;;;;;;;;;;;5062553;28;19989;-68
2021/10/01 01:04:10;;;;;;;;;;;;;;;;;;5066998;28;19964;-68
2021/10/01 01:06:39;;;;;;;;;;;;;;;;;;5069487;28;19938;-68
2021/10/01 01:09:14;;;;;;;;;;;;;;;;;;5064186;28;20350;-68
2021/10/01 01:11:44;;;;;;;;;;;;;;;;;;5065244;28;19921;-68
2021/10/01 01:14:14;;;;;;;;;;;;;;;;;;5068038;28;19933;-67
2021/10/01 01:16:45;;;;;;;;;;;;;;;;;;5067750;28;19924;-67
2021/10/01 01:19:18;;;;;;;;;;;;;;;;;;5068628;28;20032;-67
2021/10/01 01:21:50;;;;;;;;;;;;;;;;;;5067911;28;20465;-67
2021/10/01 01:24:20;;;;;;;;;;;;;;;;;;5074122;28;19965;-68
2021/10/01 01:26:51;;;;;;;;;;;;;;;;;;5069262;28;19940;-68
2021/10/01 01:29:21;;;;;;;;;;;;;;;;;;5066198;28;19933;-68
2021/10/01 01:31:52;;;;;;;;;;;;;;;;;;5068639;28;20011;-68
2021/10/01 01:34:26;;;;;;;;;;;;;;;;;;5075487;28;19940;-68
2021/10/01 01:36:55;;;;;;;;;;;;;;;;;;5064774;28;19950;-67
2021/10/01 01:39:24;;;;;;;;;;;;;;;;;;5066957;28;19934;-67
2021/10/01 01:41:55;;;;;;;;;;;;;;;;;;5067188;28;19949;-68
2021/10/01 01:44:26;;;;;;;;;;;;;;;;;;5068844;28;19920;-68
2021/10/01 01:46:56;;;;;;;;;;;;;;;;;;5068209;28;19954;-68
2021/10/01 01:49:27;;;;;;;;;;;;;;;;;;5063651;28;19957;-68
2021/10/01 01:51:57;;;;;;;;;;;;;;;;;;5061926;28;19940;-67
2021/10/01 01:54:27;;;;;;;;;;;;;;;;;;5050891;28;20483;-68
2021/10/01 01:56:57;;;;;;;;;;;;;;;;;;5067423;28;20006;-68
2021/10/01 01:59:26;;;;;;;;;;;;;;;;;;5059662;28;19942;-68
2021/10/01 02:01:57;;;;;;;;;;;;;;;;;;5068196;28;19938;-68
2021/10/01 02:04:27;;;;;;;;;;;;;;;;;;5053504;28;20437;-68
2021/10/01 02:06:58;;;;;;;;;;;;;;;;;;5070606;28;19936;-68
2021/10/01 02:09:31;;;;;;;;;;;;;;;;;;5051061;28;20033;-67
2021/10/01 02:12:02;;;;;;;;;;;;;;;;;;5068478;28;20368;-68
2021/10/01 02:14:34;;;;;;;;;;;;;;;;;;5070423;28;20357;-68
2021/10/01 02:17:06;;;;;;;;;;;;;;;;;;5071229;28;19966;-67
2021/10/01 02:19:39;;;;;;;;;;;;;;;;;;5067908;28;19945;-67
2021/10/01 02:22:10;;;;;;;;;;;;;;;;;;5070304;28;19965;-67
2021/10/01 02:24:39;;;;;;;;;;;;;;;;;;5067618;28;20362;-67
2021/10/01 02:27:09;;;;;;;;;;;;;;;;;;5069398;28;20012;-68
2021/10/01 02:29:37;;;;;;;;;;;;;;;;;;5067349;28;19966;-67
2021/10/01 02:32:13;;;;;;;;;;;;;;;;;;5055412;28;19920;-67
2021/10/01 02:34:43;;;;;;;;;;;;;;;;;;5070982;28;19937;-67
2021/10/01 02:37:12;;;;;;;;;;;;;;;;;;5051535;28;19936;-67
2021/10/01 02:39:40;;;;;;;;;;;;;;;;;;5070958;28;20356;-67
2021/10/01 02:42:10;;;;;;;;;;;;;;;;;;5070201;28;19938;-68
2021/10/01 02:44:38;;;;;;;;;;;;;;;;;;5071057;28;20248;-68
2021/10/01 02:47:08;;;;;;;;;;;;;;;;;;5069517;28;19953;-68
2021/10/01 02:49:36;;;;;;;;;;;;;;;;;;5068905;28;19932;-67
2021/10/01 02:52:06;;;;;;;;;;;;;;;;;;5068397;28;19920;-67
2021/10/01 02:54:37;;;;;;;;;;;;;;;;;;5070852;28;19961;-68
2021/10/01 02:57:07;;;;;;;;;;;;;;;;;;5069119;28;19935;-67
2021/10/01 02:59:36;;;;;;;;;;;;;;;;;;5065382;28;19945;-68
2021/10/01 03:02:07;;;;;;;;;;;;;;;;;;5071614;28;19932;-67
2021/10/01 03:04:40;;;;;;;;;;;;;;;;;;5070044;28;20423;-67
2021/10/01 03:07:11;;;;;;;;;;;;;;;;;;5067562;28;19938;-67
2021/10/01 03:09:40;;;;;;;;;;;;;;;;;;5070461;28;19942;-68
2021/10/01 03:12:11;;;;;;;;;;;;;;;;;;5065854;28;20456;-68
2021/10/01 03:14:42;;;;;;;;;;;;;;;;;;5067819;28;20351;-68
2021/10/01 03:17:21;;;;;;;;;;;;;;;;;;5067032;28;19959;-68
2021/10/01 03:19:52;;;;;;;;;;;;;;;;;;5067973;28;19937;-69
2021/10/01 03:22:31;;;;;;;;;;;;;;;;;;5070962;28;19935;-67
2021/10/01 03:25:16;;;;;;;;;;;;;;;;;;5062726;28;19998;-67
2021/10/01 03:27:47;;;;;;;;;;;;;;;;;;5069488;28;19945;-68
2021/10/01 03:30:16;;;;;;;;;;;;;;;;;;5069473;28;19931;-67
2021/10/01 03:32:45;;;;;;;;;;;;;;;;;;5053318;28;19998;-67
2021/10/01 03:35:15;;;;;;;;;;;;;;;;;;5062209;28;19937;-67
2021/10/01 03:37:59;;;;;;;;;;;;;;;;;;5061827;28;19964;-67
2021/10/01 03:40:29;;;;;;;;;;;;;;;;;;5070279;28;19958;-67
2021/10/01 03:42:59;;;;;;;;;;;;;;;;;;5069664;28;19931;-67
2021/10/01 03:45:29;;;;;;;;;;;;;;;;;;5067058;28;19924;-68
2021/10/01 03:48:03;;;;;;;;;;;;;;;;;;5049341;28;19938;-68
2021/10/01 03:50:35;;;;;;;;;;;;;;;;;;5069061;28;19955;-68
2021/10/01 03:53:07;;;;;;;;;;;;;;;;;;5063055;28;19954;-67
2021/10/01 03:55:38;;;;;;;;;;;;;;;;;;5052596;28;20407;-67
2021/10/01 03:58:11;;;;;;;;;;;;;;;;;;5068167;28;19948;-68
2021/10/01 04:00:55;;;;;;;;;;;;;;;;;;5058556;28;19963;-67
2021/10/01 04:03:25;;;;;;;;;;;;;;;;;;5065107;28;20022;-67
2021/10/01 04:05:54;;;;;;;;;;;;;;;;;;5069914;28;19920;-67
2021/10/01 04:08:26;;;;;;;;;;;;;;;;;;5068394;28;19935;-67
2021/10/01 04:10:58;;;;;;;;;;;;;;;;;;5068823;28;19938;-67
2021/10/01 04:13:28;;;;;;;;;;;;;;;;;;5062775;28;19954;-67
2021/10/01 04:15:57;;;;;;;;;;;;;;;;;;5066788;28;19935;-67
2021/10/01 04:18:28;;;;;;;;;;;;;;;;;;5069424;28;20378;-67
2021/10/01 04:20:57;;;;;;;;;;;;;;;;;;5068332;28;19949;-67
2021/10/01 04:23:28;;;;;;;;;;;;;;;;;;5063495;28;19934;-67
2021/10/01 04:26:02;;;;;;;;;;;;;;;;;;5066458;28;19950;-67
2021/10/01 04:28:32;;;;;;;;;;;;;;;;;;5069411;28;19962;-67
2021/10/01 04:31:01;;;;;;;;;;;;;;;;;;5067846;28;19931;-67
2021/10/01 04:33:36;;;;;;;;;;;;;;;;;;5066561;28;20138;-67
2021/10/01 04:36:05;;;;;;;;;;;;;;;;;;5064967;28;19943;-67
2021/10/01 04:38:35;;;;;;;;;;;;;;;;;;5068233;28;20476;-67
2021/10/01 04:41:06;;;;;;;;;;;;;;;;;;5067035;28;19995;-67
2021/10/01 04:43:37;;;;;;;;;;;;;;;;;;5066464;28;19956;-66
2021/10/01 04:46:08;;;;;;;;;;;;;;;;;;5068235;28;19945;-67
2021/10/01 04:48:38;;;;;;;;;;;;;;;;;;5064444;28;19924;-67
2021/10/01 04:51:08;;;;;;;;;;;;;;;;;;5071971;28;20400;-67
2021/10/01 04:53:38;;;;;;;;;;;;;;;;;;5069342;28;19950;-67
2021/10/01 04:56:10;;;;;;;;;;;;;;;;;;5068258;28;19934;-67
2021/10/01 04:58:41;;;;;;;;;;;;;;;;;;5065790;28;19936;-67
2021/10/01 05:01:11;;;;;;;;;;;;;;;;;;5067140;28;20016;-68
2021/10/01 05:03:41;;;;;;;;;;;;;;;;;;5051046;28;19946;-67
2021/10/01 05:06:11;;;;;;;;;;;;;;;;;;5069334;28;19958;-67
2021/10/01 05:08:39;;;;;;;;;;;;;;;;;;5063710;28;19961;-68
2021/10/01 05:11:08;;;;;;;;;;;;;;;;;;5065733;28;19934;-67
2021/10/01 05:13:37;;;;;;;;;;;;;;;;;;5064034;28;19962;-68
2021/10/01 05:16:09;;;;;;;;;;;;;;;;;;5068019;28;19936;-67
2021/10/01 05:18:38;;;;;;;;;;;;;;;;;;5067715;28;20275;-67
2021/10/01 05:21:07;;;;;;;;;;;;;;;;;;5067807;28;19920;-67
2021/10/01 05:23:36;;;;;;;;;;;;;;;;;;5060502;28;19928;-68
2021/10/01 05:26:06;;;;;;;;;;;;;;;;;;5070266;28;19924;-66
2021/10/01 05:28:37;;;;;;;;;;;;;;;;;;5066358;28;19941;-65
2021/10/01 05:31:07;;;;;;;;;;;;;;;;;;5075399;28;19936;-67
2021/10/01 05:33:35;;;;;;;;;;;;;;;;;;5067470;28;20493;-67
2021/10/01 05:36:05;;;;;;;;;;;;;;;;;;5076280;28;19947;-66
2021/10/01 05:38:34;;;;;;;;;;;;;;;;;;5067429;28;19947;-67
2021/10/01 05:41:04;;;;;;;;;;;;;;;;;;5070894;28;19961;-67
2021/10/01 05:43:33;;;;;;;;;;;;;;;;;;5068463;28;19938;-67
2021/10/01 05:46:05;;;;;;;;;;;;;;;;;;5071458;28;19985;-67
2021/10/01 05:48:39;;;;;;;;;;;;;;;;;;5071779;28;19973;-68
2021/10/01 05:51:12;;;;;;;;;;;;;;;;;;5069121;28;20430;-68
2021/10/01 05:56:15;;;;;;;;;;;;;;;;;;5071447;28;19942;-65
2021/10/01 05:58:50;;;;;;;;;;;;;;;;;;5068467;28;20362;-64
2021/10/01 06:01:20;;;;;;;;;;;;;;;;;;5064927;28;19934;-64
2021/10/01 06:03:53;;;;;;;;;;;;;;;;;;5068602;28;19920;-65
2021/10/01 06:06:24;;;;;;;;;;;;;;;;;;5071790;28;19947;-68
2021/10/01 06:08:53;;;;;;;;;;;;;;;;;;5073175;28;19937;-68
2021/10/01 06:11:21;;;;;;;;;;;;;;;;;;5064133;28;19934;-64
2021/10/01 06:13:51;;;;;;;;;;;;;;;;;;5063889;28;19928;-65
2021/10/01 06:16:21;;;;;;;;;;;;;;;;;;5068802;28;19934;-67
2021/10/01 06:18:50;;;;;;;;;;;;;;;;;;5066863;28;19946;-67
2021/10/01 06:21:20;;;;;;;;;;;;;;;;;;5046272;28;19933;-67
2021/10/01 06:23:49;;;;;;;;;;;;;;;;;;5069910;28;19920;-67
2021/10/01 06:26:20;;;;;;;;;;;;;;;;;;5067490;28;19950;-67
2021/10/01 06:28:50;;;;;;;;;;;;;;;;;;5068115;28;19938;-68
2021/10/01 06:31:23;;;;;;;;;;;;;;;;;;5067908;28;19935;-64
2021/10/01 06:33:53;;;;;;;;;;;;;;;;;;5070652;28;19946;-64
2021/10/01 06:36:23;;;;;;;;;;;;;;;;;;5059740;28;19942;-67
2021/10/01 06:38:54;;;;;;;;;;;;;;;;;;5067309;28;19920;-68
2021/10/01 06:41:26;;;;;;;;;;;;;;;;;;5064876;28;20318;-68
2021/10/01 06:44:02;;;;;;;;;;;;;;;;;;5071876;28;20022;-68
2021/10/01 08:19:13;;;;;;;;;;;;;;;;;;5070597;28;19933;-69
2021/10/01 08:21:42;;;;;;;;;;;;;;;;;;5060364;28;20043;-69
2021/10/01 08:24:15;;;;;;;;;;;;;;;;;;5066578;28;19950;-67
2021/10/01 08:26:44;;;;;;;;;;;;;;;;;;5065775;28;19957;-68
2021/10/01 08:29:14;;;;;;;;;;;;;;;;;;5068513;28;20437;-68
2021/10/01 08:31:43;;;;;;;;;;;;;;;;;;5069436;28;19949;-68
2021/10/01 08:34:14;;;;;;;;;;;;;;;;;;5068616;28;19953;-70
2021/10/01 08:36:43;;;;;;;;;;;;;;;;;;5051431;28;19938;-66
2021/10/01 08:39:26;;;;;;;;;;;;;;;;;;5062119;28;20011;-65
2021/10/01 08:41:57;;;;;;;;;;;;;;;;;;5050710;28;20003;-70
2021/10/01 08:44:26;;;;;;;;;;;;;;;;;;5077950;28;19947;-69
2021/10/01 08:46:55;;;;;;;;;;;;;;;;;;5068320;28;20274;-69
2021/10/01 08:49:24;;;;;;;;;;;;;;;;;;5068609;28;19936;-68
2021/10/01 08:51:55;;;;;;;;;;;;;;;;;;5060595;28;19954;-65
2021/10/01 08:54:26;;;;;;;;;;;;;;;;;;5074663;28;19986;-67
2021/10/01 08:56:56;;;;;;;;;;;;;;;;;;5069905;28;19927;-67
2021/10/01 08:59:27;;;;;;;;;;;;;;;;;;5059579;28;19940;-68
2021/10/01 09:01:58;;;;;;;;;;;;;;;;;;5064411;28;19967;-69
2021/10/01 09:04:29;;;;;;;;;;;;;;;;;;5065100;28;19939;-69
2021/10/01 09:07:02;;;;;;;;;;;;;;;;;;5069379;28;19954;-69
2021/10/01 09:09:33;;;;;;;;;;;;;;;;;;5067882;28;19986;-69
2021/10/01 09:12:01;;;;;;;;;;;;;;;;;;5065042;28;19935;-65
2021/10/01 09:14:31;;;;;;;;;;;;;;;;;;5064250;28;19940;-66
2021/10/01 09:17:01;;;;;;;;;;;;;;;;;;5051400;28;19920;-67
2021/10/01 09:19:32;;;;;;;;;;;;;;;;;;5066477;28;19942;-69
2021/10/01 09:22:03;;;;;;;;;;;;;;;;;;5066650;28;19967;-69
2021/10/01 09:24:32;;;;;;;;;;;;;;;;;;5067708;28;19924;-69
2021/10/01 09:27:01;;;;;;;;;;;;;;;;;;5063245;28;19957;-69
2021/10/01 09:29:33;;;;;;;;;;;;;;;;;;5059687;28;19965;-67
2021/10/01 09:32:04;;;;;;;;;;;;;;;;;;5067687;28;20451;-67
2021/10/01 09:34:34;;;;;;;;;;;;;;;;;;5067258;28;20506;-68
2021/10/01 09:37:03;;;;;;;;;;;;;;;;;;5065912;28;19935;-67
2021/10/01 09:39:32;;;;;;;;;;;;;;;;;;5068849;28;19962;-68
2021/10/01 09:42:04;;;;;;;;;;;;;;;;;;5065049;28;20366;-65
2021/10/01 09:44:31;;;;;;;;;;;;;;;;;;5067781;28;19938;-64
2021/10/01 09:47:06;;;;;;;;;;;;;;;;;;5068032;28;19953;-67
2021/10/01 09:49:37;;;;;;;;;;;;;;;;;;5058110;28;19977;-68
2021/10/01 09:52:14;;;;;;;;;;;;;;;;;;5064824;28;19956;-63
2021/10/01 09:54:44;;;;;;;;;;;;;;;;;;5048991;28;19936;-65
2021/10/01 09:57:15;;;;;;;;;;;;;;;;;;5063781;28;19944;-64
2021/10/01 09:59:44;;;;;;;;;;;;;;;;;;5065061;28;19965;-64
2021/10/01 10:02:15;;;;;;;;;;;;;;;;;;5074547;28;19953;-68
2021/10/01 10:04:46;;;;;;;;;;;;;;;;;;5064616;28;19954;-67
2021/10/01 10:07:17;;;;;;;;;;;;;;;;;;5049786;28;20262;-67
2021/10/01 10:09:47;;;;;;;;;;;;;;;;;;5063076;28;19982;-66
2021/10/01 10:12:17;;;;;;;;;;;;;;;;;;5062455;28;19947;-68
2021/10/01 10:14:48;;;;;;;;;;;;;;;;;;5065997;28;19928;-68
2021/10/01 10:17:18;;;;;;;;;;;;;;;;;;5061859;28;19953;-66
2021/10/01 10:19:48;;;;;;;;;;;;;;;;;;5070000;28;19945;-66
2021/10/01 10:22:19;;;;;;;;;;;;;;;;;;5063683;28;19920;-68
2021/10/01 10:24:48;;;;;;;;;;;;;;;;;;5070345;28;20021;-69
2021/10/01 10:27:19;;;;;;;;;;;;;;;;;;5058467;28;19961;-68
2021/10/01 10:29:48;;;;;;;;;;;;;;;;;;5062853;28;19945;-70
2021/10/01 10:32:20;;;;;;;;;;;;;;;;;;5069364;28;20390;-66
2021/10/01 10:34:51;;;;;;;;;;;;;;;;;;5071954;28;20472;-66
2021/10/01 10:37:22;;;;;;;;;;;;;;;;;;5066481;28;19939;-68
2021/10/01 10:39:57;;;;;;;;;;;;;;;;;;5066809;28;19940;-69
2021/10/01 10:42:30;;;;;;;;;;;;;;;;;;5069705;28;19947;-67
2021/10/01 10:44:58;;;;;;;;;;;;;;;;;;5053727;28;19946;-66
2021/10/01 10:47:29;;;;;;;;;;;;;;;;;;5068742;28;19945;-66
2021/10/01 10:49:59;;;;;;;;;;;;;;;;;;5067785;28;20320;-66
2021/10/01 10:52:26;;;;;;;;;;;;;;;;;;5067469;28;19946;-68
2021/10/01 10:55:06;;;;;;;;;;;;;;;;;;5050598;28;19960;-67
2021/10/01 10:57:38;;;;;;;;;;;;;;;;;;5056964;28;19963;-68
2021/10/01 11:00:09;;;;;;;;;;;;;;;;;;5066774;28;19949;-68
2021/10/01 11:02:46;;;;;;;;;;;;;;;;;;5067419;28;19995;-68
2021/10/01 11:05:13;;;;;;;;;;;;;;;;;;5064433;28;19950;-68
2021/10/01 11:07:42;;;;;;;;;;;;;;;;;;5059391;28;19961;-67
2021/10/01 11:10:12;;;;;;;;;;;;;;;;;;5066184;28;19939;-65
2021/10/01 11:12:41;;;;;;;;;;;;;;;;;;5069168;28;19949;-66
2021/10/01 11:15:10;;;;;;;;;;;;;;;;;;5069983;28;19935;-68
2021/10/01 11:17:53;;;;;;;;;;;;;;;;;;5070010;28;19946;-71
2021/10/01 11:20:26;;;;;;;;;;;;;;;;;;5068981;28;19938;-69
2021/10/01 11:22:55;;;;;;;;;;;;;;;;;;5069364;28;20077;-70
2021/10/01 11:25:24;;;;;;;;;;;;;;;;;;5063903;28;19956;-66
2021/10/01 11:27:53;;;;;;;;;;;;;;;;;;5067633;28;19965;-66
2021/10/01 11:30:21;;;;;;;;;;;;;;;;;;5069503;28;19921;-64
2021/10/01 11:32:56;;;;;;;;;;;;;;;;;;5069359;28;19952;-66
2021/10/01 11:35:24;;;;;;;;;;;;;;;;;;5066262;28;19930;-67
2021/10/01 11:37:52;;;;;;;;;;;;;;;;;;5070457;28;19937;-66
2021/10/01 11:40:21;;;;;;;;;;;;;;;;;;5067167;28;19938;-66
2021/10/01 11:42:51;;;;;;;;;;;;;;;;;;5065752;28;19964;-66
2021/10/01 11:45:19;;;;;;;;;;;;;;;;;;5065993;28;19960;-66
2021/10/01 11:47:54;;;;;;;;;;;;;;;;;;5072544;28;19957;-66
2021/10/01 11:50:22;;;;;;;;;;;;;;;;;;5054768;28;19920;-66
2021/10/01 11:52:53;;;;;;;;;;;;;;;;;;5066279;28;20310;-65
2021/10/01 11:55:24;;;;;;;;;;;;;;;;;;5063558;28;19924;-64
2021/10/01 11:57:53;;;;;;;;;;;;;;;;;;5064531;28;19941;-64
2021/10/01 12:00:26;;;;;;;;;;;;;;;;;;5069155;28;19963;-67
2021/10/01 12:02:57;;;;;;;;;;;;;;;;;;5059719;28;19942;-67
2021/10/01 12:05:27;;;;;;;;;;;;;;;;;;5061275;28;20312;-67
2021/10/01 12:07:56;;;;;;;;;;;;;;;;;;5070182;28;19949;-67
2021/10/01 12:10:26;;;;;;;;;;;;;;;;;;5068057;28;20581;-67
2021/10/01 12:12:55;;;;;;;;;;;;;;;;;;5081502;28;19951;-66
2021/10/01 12:15:24;;;;;;;;;;;;;;;;;;5061503;28;19936;-66
2021/10/01 12:17:53;;;;;;;;;;;;;;;;;;5069487;28;20015;-66
2021/10/01 12:20:22;;;;;;;;;;;;;;;;;;5067889;28;20382;-65
2021/10/01 12:22:52;;;;;;;;;;;;;;;;;;5069332;28;19940;-65
2021/10/01 12:25:23;;;;;;;;;;;;;;;;;;5063668;28;19920;-63
2021/10/01 12:27:54;;;;;;;;;;;;;;;;;;5066412;28;19935;-64
2021/10/01 12:30:24;;;;;;;;;;;;;;;;;;5070353;28;20019;-67
2021/10/01 12:32:53;;;;;;;;;;;;;;;;;;5067325;28;20549;-65
2021/10/01 12:35:23;;;;;;;;;;;;;;;;;;5065595;28;20031;-63
2021/10/01 12:37:54;;;;;;;;;;;;;;;;;;5072580;28;19946;-66
2021/10/01 12:40:21;;;;;;;;;;;;;;;;;;5064939;28;19958;-68
2021/10/01 12:42:52;;;;;;;;;;;;;;;;;;5069595;28;19985;-70
2021/10/01 12:45:23;;;;;;;;;;;;;;;;;;5063936;28;19951;-65
2021/10/01 12:47:53;;;;;;;;;;;;;;;;;;5069298;28;19957;-64
2021/10/01 12:50:24;;;;;;;;;;;;;;;;;;5058527;28;19965;-62
2021/10/01 12:52:53;;;;;;;;;;;;;;;;;;5044875;28;19969;-62
2021/10/01 12:55:24;;;;;;;;;;;;;;;;;;5041767;28;19933;-66
2021/10/01 12:57:52;;;;;;;;;;;;;;;;;;5045883;28;20408;-65
2021/10/01 13:00:27;;;;;;;;;;;;;;;;;;5038913;28;19999;-68
2021/10/01 13:02:56;;;;;;;;;;;;;;;;;;5031696;28;19938;-69
2021/10/01 13:05:29;;;;;;;;;;;;;;;;;;5039879;28;19940;-68
2021/10/01 13:07:58;;;;;;;;;;;;;;;;;;5048415;28;20373;-65
2021/10/01 13:10:27;;;;;;;;;;;;;;;;;;5045935;28;19933;-69
2021/10/01 13:12:58;;;;;;;;;;;;;;;;;;5045549;28;19939;-67
2021/10/01 13:15:30;;;;;;;;;;;;;;;;;;5033955;28;19971;-68
2021/10/01 13:18:03;;;;;;;;;;;;;;;;;;5044671;28;19929;-67
2021/10/01 13:20:34;;;;;;;;;;;;;;;;;;5049459;28;20344;-68
2021/10/01 13:23:06;;;;;;;;;;;;;;;;;;5051433;28;19943;-67
2021/10/01 13:25:37;;;;;;;;;;;;;;;;;;5046444;28;20270;-67
2021/10/01 13:28:07;;;;;;;;;;;;;;;;;;5044186;28;19951;-67
2021/10/01 13:30:37;;;;;;;;;;;;;;;;;;5049513;28;19924;-67
2021/10/01 13:33:06;;;;;;;;;;;;;;;;;;5045835;28;19928;-67
2021/10/01 13:35:36;;;;;;;;;;;;;;;;;;5046397;28;19962;-70
2021/10/01 13:38:06;;;;;;;;;;;;;;;;;;5047408;28;19943;-69
2021/10/01 13:40:37;;;;;;;;;;;;;;;;;;5045758;28;19950;-68
2021/10/01 13:43:07;;;;;;;;;;;;;;;;;;5031681;28;19941;-65
2021/10/01 13:45:38;;;;;;;;;;;;;;;;;;5050031;28;19960;-65
2021/10/01 13:48:12;;;;;;;;;;;;;;;;;;5045673;28;19957;-65
2021/10/01 13:50:55;;;;;;;;;;;;;;;;;;5058150;28;20072;-67
2021/10/01 13:53:27;;;;;;;;;;;;;;;;;;5056741;28;19935;-67
2021/10/01 13:55:58;;;;;;;;;;;;;;;;;;5066374;28;19937;-67
2021/10/01 13:58:27;;;;;;;;;;;;;;;;;;5062360;28;19928;-67
2021/10/01 14:00:57;;;;;;;;;;;;;;;;;;5053687;28;19959;-67
2021/10/01 14:03:27;;;;;;;;;;;;;;;;;;5065339;28;20712;-67
2021/10/01 14:05:57;;;;;;;;;;;;;;;;;;5063122;28;19925;-67
2021/10/01 14:08:28;;;;;;;;;;;;;;;;;;5053347;28;19958;-67
2021/10/01 14:11:01;;;;;;;;;;;;;;;;;;5073967;28;19942;-68
2021/10/01 14:13:31;;;;;;;;;;;;;;;;;;5066326;28;19941;-68
2021/10/01 14:16:02;;;;;;;;;;;;;;;;;;5066484;28;19928;-65
2021/10/01 14:18:31;;;;;;;;;;;;;;;;;;5071610;28;19928;-65
2021/10/01 14:21:07;;;;;;;;;;;;;;;;;;5063813;28;19951;-67
2021/10/01 14:23:37;;;;;;;;;;;;;;;;;;5067034;28;19966;-67
2021/10/01 14:26:07;;;;;;;;;;;;;;;;;;5061554;28;19945;-67
2021/10/01 14:28:37;;;;;;;;;;;;;;;;;;5066305;28;19953;-67
2021/10/01 14:31:09;;;;;;;;;;;;;;;;;;5069487;28;19946;-69
2021/10/01 14:33:39;;;;;;;;;;;;;;;;;;5060539;28;19960;-69
2021/10/01 14:36:12;;;;;;;;;;;;;;;;;;5053171;28;20513;-68
2021/10/01 14:38:44;;;;;;;;;;;;;;;;;;5067331;28;19967;-67
2021/10/01 14:41:12;;;;;;;;;;;;;;;;;;5055605;28;19940;-70
2021/10/01 14:43:42;;;;;;;;;;;;;;;;;;5075072;28;20465;-70
2021/10/01 14:46:11;;;;;;;;;;;;;;;;;;5072888;28;20044;-65
2021/10/01 14:48:42;;;;;;;;;;;;;;;;;;5064135;28;19958;-66
2021/10/01 14:51:13;;;;;;;;;;;;;;;;;;5073940;28;19924;-68
2021/10/01 14:53:42;;;;;;;;;;;;;;;;;;5062419;28;19941;-68
2021/10/01 14:56:25;;;;;;;;;;;;;;;;;;5067047;28;20023;-67
2021/10/01 14:58:54;;;;;;;;;;;;;;;;;;5066940;28;20583;-67
2021/10/01 15:01:23;;;;;;;;;;;;;;;;;;5074897;28;19941;-67
2021/10/01 15:03:54;;;;;;;;;;;;;;;;;;5064825;28;20348;-69
2021/10/01 15:06:26;;;;;;;;;;;;;;;;;;5065368;28;20464;-67
2021/10/01 15:08:55;;;;;;;;;;;;;;;;;;5067458;28;19957;-65
2021/10/01 15:11:25;;;;;;;;;;;;;;;;;;5066742;28;19942;-66
2021/10/01 15:13:56;;;;;;;;;;;;;;;;;;5066963;28;19946;-66
2021/10/01 15:16:27;;;;;;;;;;;;;;;;;;5064197;28;20722;-66
2021/10/01 15:18:59;;;;;;;;;;;;;;;;;;5067202;28;19937;-66
2021/10/01 15:21:29;;;;;;;;;;;;;;;;;;5068634;28;19937;-68
2021/10/01 15:24:00;;;;;;;;;;;;;;;;;;5071587;28;19945;-68
2021/10/01 15:26:32;;;;;;;;;;;;;;;;;;5030834;28;19945;-69
2021/10/01 15:29:00;;;;;;;;;;;;;;;;;;5067097;28;20665;-68
2021/10/01 15:31:29;;;;;;;;;;;;;;;;;;5066978;28;20494;-68
2021/10/01 15:34:00;;;;;;;;;;;;;;;;;;5067578;28;20015;-68
2021/10/01 15:36:28;;;;;;;;;;;;;;;;;;5067508;28;19983;-69
2021/10/01 15:38:58;;;;;;;;;;;;;;;;;;5064982;28;19948;-69
2021/10/01 15:41:28;;;;;;;;;;;;;;;;;;5068399;28;19955;-69
2021/10/01 15:43:59;;;;;;;;;;;;;;;;;;5057404;28;19942;-69
2021/10/01 15:46:29;;;;;;;;;;;;;;;;;;5063833;28;19940;-66
2021/10/01 15:48:58;;;;;;;;;;;;;;;;;;5069462;28;19970;-66
2021/10/01 15:51:29;;;;;;;;;;;;;;;;;;5064862;28;19957;-66
2021/10/01 15:53:59;;;;;;;;;;;;;;;;;;5067597;28;19946;-66
2021/10/01 15:56:30;;;;;;;;;;;;;;;;;;5064592;28;19945;-65
2021/10/01 15:59:01;;;;;;;;;;;;;;;;;;5068481;28;19924;-65
2021/10/01 16:01:31;;;;;;;;;;;;;;;;;;5065338;28;20273;-65
2021/10/01 16:04:03;;;;;;;;;;;;;;;;;;5058677;28;19946;-65
2021/10/01 16:06:34;;;;;;;;;;;;;;;;;;5066547;28;19928;-68
2021/10/01 16:09:04;;;;;;;;;;;;;;;;;;5056188;28;19974;-68
2021/10/01 16:11:35;;;;;;;;;;;;;;;;;;5063468;28;20649;-68
2021/10/01 16:14:04;;;;;;;;;;;;;;;;;;5062184;28;19928;-68
2021/10/01 16:16:33;;;;;;;;;;;;;;;;;;5063373;28;19947;-65
2021/10/01 16:19:04;;;;;;;;;;;;;;;;;;5067946;28;19928;-65
2021/10/01 16:21:34;;;;;;;;;;;;;;;;;;5064678;28;19996;-63
2021/10/01 16:24:04;;;;;;;;;;;;;;;;;;5056500;28;19966;-62
2021/10/01 16:26:36;;;;;;;;;;;;;;;;;;5057824;28;20028;-66
2021/10/01 16:29:07;;;;;;;;;;;;;;;;;;5059127;28;20243;-65
2021/10/01 16:31:37;;;;;;;;;;;;;;;;;;5059417;28;19937;-64
2021/10/01 16:34:08;;;;;;;;;;;;;;;;;;5055464;28;19951;-63
2021/10/01 16:36:37;;;;;;;;;;;;;;;;;;5063757;28;19941;-63
2021/10/01 16:39:11;;;;;;;;;;;;;;;;;;5061552;28;20056;-63
2021/10/01 16:41:42;;;;;;;;;;;;;;;;;;5048802;28;19985;-63
2021/10/01 16:44:15;;;;;;;;;;;;;;;;;;5055007;28;20262;-63
2021/10/01 16:46:50;;;;;;;;;;;;;;;;;;5057118;28;20368;-66
2021/10/01 16:49:21;;;;;;;;;;;;;;;;;;5063837;28;20556;-67
2021/10/01 16:51:52;;;;;;;;;;;;;;;;;;5064522;28;19924;-63
2021/10/01 16:54:21;;;;;;;;;;;;;;;;;;5063270;28;19940;-63
2021/10/01 16:56:52;;;;;;;;;;;;;;;;;;5076715;28;20010;-66
2021/10/01 16:59:21;;;;;;;;;;;;;;;;;;5056891;28;19992;-67
2021/10/01 17:01:54;;;;;;;;;;;;;;;;;;5047320;28;20029;-63
2021/10/01 17:04:27;;;;;;;;;;;;;;;;;;5060637;28;19945;-63
2021/10/01 17:07:01;;;;;;;;;;;;;;;;;;5076075;28;19947;-65
2021/10/01 17:09:30;;;;;;;;;;;;;;;;;;5063260;28;19965;-65
2021/10/01 17:12:00;;;;;;;;;;;;;;;;;;5071996;28;19951;-63
2021/10/01 17:14:28;;;;;;;;;;;;;;;;;;5060285;28;20306;-63
2021/10/01 17:17:00;;;;;;;;;;;;;;;;;;5049432;28;19944;-63
2021/10/01 17:19:32;;;;;;;;;;;;;;;;;;5066030;28;19938;-63
2021/10/01 17:22:04;;;;;;;;;;;;;;;;;;5059577;28;19955;-66
2021/10/01 17:24:34;;;;;;;;;;;;;;;;;;5050902;28;19939;-66
2021/10/01 17:27:21;;;;;;;;;;;;;;;;;;5077671;28;20388;-63
2021/10/01 17:29:50;;;;;;;;;;;;;;;;;;5072841;28;19950;-63
2021/10/01 17:32:19;;;;;;;;;;;;;;;;;;5054696;28;20478;-64
2021/10/01 17:34:47;;;;;;;;;;;;;;;;;;5058499;28;19921;-63
2021/10/01 17:37:22;;;;;;;;;;;;;;;;;;5057636;28;19950;-63
2021/10/01 17:39:51;;;;;;;;;;;;;;;;;;5044629;28;19978;-64
2021/10/01 17:42:24;;;;;;;;;;;;;;;;;;5058634;28;20249;-63
2021/10/01 17:44:53;;;;;;;;;;;;;;;;;;5065291;28;19940;-64
2021/10/01 17:47:22;;;;;;;;;;;;;;;;;;5071106;28;19957;-65
2021/10/01 17:49:49;;;;;;;;;;;;;;;;;;5069516;28;20424;-62
2021/10/01 17:52:18;;;;;;;;;;;;;;;;;;5068531;28;19951;-63
2021/10/01 17:54:47;;;;;;;;;;;;;;;;;;5064896;28;19999;-63
2021/10/01 17:57:17;;;;;;;;;;;;;;;;;;5070768;28;19937;-62
2021/10/01 17:59:47;;;;;;;;;;;;;;;;;;5038538;28;19945;-62
2021/10/01 18:02:18;;;;;;;;;;;;;;;;;;5054086;28;19997;-62
2021/10/01 18:04:53;;;;;;;;;;;;;;;;;;5069809;28;19993;-62
2021/10/01 18:07:22;;;;;;;;;;;;;;;;;;5068960;28;19963;-63
2021/10/01 18:09:51;;;;;;;;;;;;;;;;;;5071158;28;19959;-63
2021/10/01 18:12:20;;;;;;;;;;;;;;;;;;5066860;28;19943;-63
2021/10/01 18:14:50;;;;;;;;;;;;;;;;;;5069854;28;19920;-63
2021/10/01 18:17:20;;;;;;;;;;;;;;;;;;5068394;28;19925;-62
2021/10/01 18:19:48;;;;;;;;;;;;;;;;;;5061436;28;19943;-62
2021/10/01 18:22:24;;;;;;;;;;;;;;;;;;5064669;28;19941;-63
2021/10/01 18:24:53;;;;;;;;;;;;;;;;;;5065540;28;19924;-62
2021/10/01 18:27:24;;;;;;;;;;;;;;;;;;5065017;28;19945;-62
2021/10/01 18:29:54;;;;;;;;;;;;;;;;;;5063390;28;19947;-62
2021/10/01 18:32:24;;;;;;;;;;;;;;;;;;5050646;28;19942;-63
2021/10/01 18:34:56;;;;;;;;;;;;;;;;;;5049841;28;19943;-63
2021/10/01 18:37:26;;;;;;;;;;;;;;;;;;5066173;28;19939;-63
2021/10/01 18:39:56;;;;;;;;;;;;;;;;;;5065241;28;19939;-63
2021/10/01 18:42:27;;;;;;;;;;;;;;;;;;5053441;28;19992;-62
2021/10/01 18:44:58;;;;;;;;;;;;;;;;;;5067665;28;19936;-65